METAR Data
IDs: Format: Raw Decoded Include TAF

Data at: 1808 UTC 16 Oct 2021

KMPZ 161755Z AUTO 28013G19KT 10SM CLR 16/01 A3017 RMK AO2